createdAt,value
2022-12-11T00:02:10.418Z,96870.59
2022-12-11T00:04:36.958Z,96862.94
2022-12-11T00:07:03.499Z,96848.69
2022-12-11T00:09:29.997Z,96844.22
2022-12-11T00:11:56.551Z,96849.50
2022-12-11T00:14:23.310Z,96843.41
2022-12-11T00:16:50.438Z,96850.81
2022-12-11T00:19:17.073Z,96847.38
2022-12-11T00:21:43.590Z,96838.91
2022-12-11T00:24:10.538Z,96849.22
2022-12-11T00:26:37.237Z,96848.94
2022-12-11T00:29:03.843Z,96851.59
2022-12-11T00:31:30.411Z,96853.69
2022-12-11T00:33:56.960Z,96871.63
2022-12-11T00:36:24.753Z,96872.69
2022-12-11T00:38:51.312Z,96875.59
2022-12-11T00:41:18.138Z,96879.53
2022-12-11T00:43:44.970Z,96873.47
2022-12-11T00:46:11.734Z,96887.72
2022-12-11T00:48:38.326Z,96891.63
2022-12-11T00:51:05.035Z,96896.13
2022-12-11T00:53:31.598Z,96902.19
2022-12-11T00:55:58.073Z,96904.81
2022-12-11T00:58:24.755Z,96911.13
2022-12-11T01:00:53.350Z,96920.59
2022-12-11T01:03:19.915Z,96933.78
2022-12-11T01:05:55.038Z,96933.75
2022-12-11T01:08:21.663Z,96944.53
2022-12-11T01:10:48.403Z,96947.97
2022-12-11T01:13:15.371Z,96949.00
2022-12-11T01:15:43.383Z,96957.97
2022-12-11T01:18:10.977Z,96966.38
2022-12-11T01:20:38.960Z,96964.28
2022-12-11T01:23:05.509Z,96964.28
2022-12-11T01:25:33.388Z,96985.38
2022-12-11T01:27:59.902Z,96978.50
2022-12-11T01:30:26.594Z,96990.84
2022-12-11T01:32:53.283Z,97007.66
2022-12-11T01:35:19.954Z,97011.09
2022-12-11T01:37:47.019Z,97016.34
2022-12-11T01:40:14.594Z,97020.28
2022-12-11T01:42:41.134Z,97023.13
2022-12-11T01:45:13.519Z,97023.91
2022-12-11T01:47:40.130Z,97028.63
2022-12-11T01:50:06.833Z,97035.94
2022-12-11T01:52:33.661Z,97042.53
2022-12-11T01:55:00.104Z,97050.69
2022-12-11T01:57:26.974Z,97050.59
2022-12-11T01:59:53.613Z,97061.34
2022-12-11T02:02:26.997Z,97067.53
2022-12-11T02:04:53.606Z,97075.91
2022-12-11T02:07:20.219Z,97073.75
2022-12-11T02:09:47.498Z,97081.09
2022-12-11T02:12:16.787Z,97081.34
2022-12-11T02:14:49.594Z,97084.47
2022-12-11T02:17:16.077Z,97088.44
2022-12-11T02:19:46.109Z,97087.16
2022-12-11T02:22:17.006Z,97092.75
2022-12-11T02:24:47.118Z,97093.47
2022-12-11T02:27:32.686Z,97102.59
2022-12-11T02:30:07.196Z,97123.84
2022-12-11T02:32:43.682Z,97125.13
2022-12-11T02:35:13.769Z,97126.47
2022-12-11T02:37:42.579Z,97113.44
2022-12-11T02:40:11.178Z,97120.78
2022-12-11T02:42:39.726Z,97129.66
2022-12-11T02:45:08.278Z,97140.72
2022-12-11T02:47:35.602Z,97143.78
2022-12-11T02:50:03.651Z,97150.56
2022-12-11T02:52:32.078Z,97158.63
2022-12-11T02:54:59.770Z,97167.72
2022-12-11T02:57:47.910Z,97166.84
2022-12-11T03:00:15.827Z,97158.25
2022-12-11T03:02:42.867Z,97168.22
2022-12-11T03:05:11.381Z,97171.56
2022-12-11T03:07:40.050Z,97173.63
2022-12-11T03:10:07.982Z,97172.84
2022-12-11T03:12:36.899Z,97186.44
2022-12-11T03:15:06.189Z,97196.94
2022-12-11T03:17:38.562Z,97195.34
2022-12-11T03:20:23.615Z,97195.97
2022-12-11T03:23:02.862Z,97201.09
2022-12-11T03:25:34.617Z,97206.81
2022-12-11T03:28:19.677Z,97213.34
2022-12-11T03:30:49.773Z,97226.91
2022-12-11T03:33:21.284Z,97232.63
2022-12-11T03:35:56.467Z,97238.50
2022-12-11T03:38:29.525Z,97220.38
2022-12-11T03:40:59.105Z,97207.84
2022-12-11T03:43:26.532Z,97198.53
2022-12-11T03:45:54.552Z,97197.91
2022-12-11T03:48:21.648Z,97204.50
2022-12-11T03:50:49.659Z,97193.38
2022-12-11T03:53:17.002Z,97197.38
2022-12-11T03:55:43.741Z,97176.78
2022-12-11T03:58:10.346Z,97162.75
2022-12-11T04:00:36.894Z,97177.94
2022-12-11T04:03:13.845Z,97208.41
2022-12-11T04:05:45.795Z,97189.41
2022-12-11T04:08:12.463Z,97185.97
2022-12-11T04:10:39.786Z,97177.47
2022-12-11T04:13:06.323Z,97186.53
2022-12-11T04:15:33.284Z,97194.88
2022-12-11T04:18:18.349Z,97220.38
2022-12-11T04:21:03.779Z,97239.25
2022-12-11T04:23:48.938Z,97282.50
2022-12-11T04:26:19.915Z,97287.00
2022-12-11T04:28:47.040Z,97254.53
2022-12-11T04:31:14.562Z,97263.19
2022-12-11T04:33:41.548Z,97295.75
2022-12-11T04:36:08.389Z,97319.09
2022-12-11T04:38:34.867Z,97338.50
2022-12-11T04:41:02.236Z,97349.56
2022-12-11T04:43:28.776Z,97313.81
2022-12-11T04:46:02.099Z,97282.09
2022-12-11T04:48:28.743Z,97268.13
2022-12-11T04:50:55.402Z,97268.69
2022-12-11T04:53:21.918Z,97272.13
2022-12-11T04:55:48.469Z,97287.19
2022-12-11T04:58:14.975Z,97290.69
2022-12-11T05:00:42.738Z,97334.31
2022-12-11T05:03:09.500Z,97340.03
2022-12-11T05:05:36.089Z,97336.22
2022-12-11T05:08:02.637Z,97351.41
2022-12-11T05:10:29.343Z,97338.47
2022-12-11T05:12:55.887Z,97325.34
2022-12-11T05:15:22.674Z,97333.78
2022-12-11T05:17:49.432Z,97342.34
2022-12-11T05:20:16.081Z,97352.75
2022-12-11T05:22:42.604Z,97374.69
2022-12-11T05:25:09.755Z,97422.50
2022-12-11T05:27:36.693Z,97430.97
2022-12-11T05:30:03.561Z,97428.69
2022-12-11T05:32:30.107Z,97426.63
2022-12-11T05:34:56.607Z,97393.50
2022-12-11T05:37:23.245Z,97453.31
2022-12-11T05:39:49.741Z,97491.44
2022-12-11T05:42:16.298Z,97456.16
2022-12-11T05:44:42.796Z,97461.75
2022-12-11T05:47:09.234Z,97417.72
2022-12-11T05:49:35.792Z,97446.25
2022-12-11T05:52:02.339Z,97481.91
2022-12-11T05:54:28.765Z,97485.75
2022-12-11T05:56:55.435Z,97484.97
2022-12-11T05:59:22.049Z,97474.84
2022-12-11T06:01:48.820Z,97516.66
2022-12-11T06:04:15.371Z,97469.09
2022-12-11T06:06:43.726Z,97482.47
2022-12-11T06:09:13.242Z,97486.44
2022-12-11T06:11:39.707Z,97463.09
2022-12-11T06:14:06.349Z,97406.41
2022-12-11T06:16:32.979Z,97461.97
2022-12-11T06:18:59.621Z,97513.22
2022-12-11T06:21:32.476Z,97520.06
2022-12-11T06:24:00.241Z,97442.00
2022-12-11T06:26:26.937Z,97421.22
2022-12-11T06:28:53.417Z,97400.81
2022-12-11T06:31:20.363Z,97421.09
2022-12-11T06:33:49.866Z,97455.00
2022-12-11T06:36:18.182Z,97471.03
2022-12-11T06:38:47.237Z,97467.06
2022-12-11T06:41:16.794Z,97465.78
2022-12-11T06:43:43.317Z,97511.56
2022-12-11T06:46:13.474Z,97542.31
2022-12-11T06:48:42.182Z,97577.63
2022-12-11T06:51:09.752Z,97609.25
2022-12-11T06:53:36.335Z,97632.47
2022-12-11T06:56:06.656Z,97626.41
2022-12-11T06:58:34.201Z,97591.38
2022-12-11T07:01:00.755Z,97560.69
2022-12-11T07:03:27.458Z,97560.06
2022-12-11T07:05:53.970Z,97551.47
2022-12-11T07:08:20.460Z,97541.53
2022-12-11T07:10:46.947Z,97527.38
2022-12-11T07:13:13.515Z,97555.09
2022-12-11T07:15:40.697Z,97536.94
2022-12-11T07:18:07.226Z,97520.28
2022-12-11T07:20:33.661Z,97496.13
2022-12-11T07:23:00.314Z,97518.47
2022-12-11T07:25:26.823Z,97543.03
2022-12-11T07:27:53.257Z,97549.53
2022-12-11T07:30:19.759Z,97553.50
2022-12-11T07:32:46.279Z,97529.88
2022-12-11T07:35:12.962Z,97504.34
2022-12-11T07:37:42.905Z,97511.75
2022-12-11T07:40:09.874Z,97558.31
2022-12-11T07:42:38.377Z,97594.72
2022-12-11T07:45:08.500Z,97606.84
2022-12-11T07:47:35.266Z,97608.09
2022-12-11T07:50:01.756Z,97576.34
2022-12-11T07:52:28.218Z,97580.91
2022-12-11T07:54:54.650Z,97594.75
2022-12-11T07:57:21.179Z,97591.53
2022-12-11T07:59:47.817Z,97615.69
2022-12-11T08:02:14.490Z,97648.13
2022-12-11T08:04:41.129Z,97669.06
2022-12-11T08:07:07.587Z,97652.75
2022-12-11T08:09:34.706Z,97647.47
2022-12-11T08:12:01.147Z,97666.53
2022-12-11T08:14:28.376Z,97668.66
2022-12-11T08:16:57.230Z,97669.75
2022-12-11T08:19:23.782Z,97682.66
2022-12-11T08:21:52.248Z,97676.84
2022-12-11T08:24:20.898Z,97655.59
2022-12-11T08:26:48.438Z,97653.94
2022-12-11T08:29:15.137Z,97654.56
2022-12-11T08:31:41.640Z,97675.84
2022-12-11T08:34:08.276Z,97725.34
2022-12-11T08:36:34.730Z,97805.66
2022-12-11T08:39:01.263Z,97804.63
2022-12-11T08:41:28.946Z,97825.72
2022-12-11T08:43:55.765Z,97860.94
2022-12-11T08:46:26.455Z,97902.31
2022-12-11T08:48:53.347Z,97892.31
2022-12-11T08:51:22.857Z,97893.53
2022-12-11T08:53:50.033Z,97888.28
2022-12-11T08:56:18.037Z,97907.28
2022-12-11T08:58:45.038Z,97908.91
2022-12-11T09:01:16.168Z,97940.56
2022-12-11T09:03:42.830Z,97928.44
2022-12-11T09:06:11.645Z,97937.75
2022-12-11T09:08:38.152Z,97919.59
2022-12-11T09:11:06.925Z,97922.19
2022-12-11T09:13:35.133Z,97918.78
2022-12-11T09:16:05.853Z,97921.78
2022-12-11T09:18:32.565Z,97946.41
2022-12-11T09:21:02.979Z,97982.09
2022-12-11T09:23:29.552Z,97958.16
2022-12-11T09:25:56.383Z,97927.75
2022-12-11T09:28:22.954Z,97887.91
2022-12-11T09:30:49.468Z,97880.25
2022-12-11T09:33:16.051Z,97869.94
2022-12-11T09:35:43.152Z,97860.81
2022-12-11T09:38:10.314Z,97831.75
2022-12-11T09:40:42.682Z,97841.28
2022-12-11T09:43:26.019Z,97768.03
2022-12-11T09:45:55.237Z,97781.44
2022-12-11T09:48:24.279Z,97745.75
2022-12-11T09:50:53.423Z,97720.16
2022-12-11T09:53:37.083Z,97717.38
2022-12-11T09:56:23.906Z,97726.63
2022-12-11T09:58:50.381Z,97702.84
2022-12-11T10:01:40.958Z,97702.88
2022-12-11T10:04:16.638Z,97701.16
2022-12-11T10:06:47.152Z,97713.75
2022-12-11T10:09:13.675Z,97710.03
2022-12-11T10:12:03.320Z,97705.50
2022-12-11T10:14:34.392Z,97720.91
2022-12-11T10:17:07.522Z,97728.31
2022-12-11T10:19:34.756Z,97740.56
2022-12-11T10:22:03.563Z,97743.38
2022-12-11T10:25:09.319Z,97761.13
2022-12-11T10:27:22.925Z,97777.72
2022-12-11T10:29:54.846Z,97779.66
2022-12-11T10:32:24.082Z,97781.22
2022-12-11T10:34:57.415Z,97778.63
2022-12-11T10:37:26.211Z,97768.72
2022-12-11T10:39:52.709Z,97764.56
2022-12-11T10:42:20.810Z,97751.94
2022-12-11T10:44:58.325Z,97760.84
2022-12-11T10:47:24.924Z,97751.47
2022-12-11T10:49:53.273Z,97750.25
2022-12-11T10:52:26.579Z,97741.72
2022-12-11T10:55:00.048Z,97734.78
2022-12-11T10:57:28.470Z,97728.63
2022-12-11T10:59:55.466Z,97719.19
2022-12-11T11:02:25.432Z,97712.47
2022-12-11T11:04:52.281Z,97721.25
2022-12-11T11:07:20.665Z,97720.66
2022-12-11T11:09:47.235Z,97715.41
2022-12-11T11:12:36.669Z,97715.09
2022-12-11T11:15:07.940Z,97697.19
2022-12-11T11:17:52.733Z,97694.69
2022-12-11T11:20:23.262Z,97699.44
2022-12-11T11:22:51.748Z,97712.13
2022-12-11T11:25:20.774Z,97704.72
2022-12-11T11:27:58.693Z,97703.50
2022-12-11T11:30:30.131Z,97711.41
2022-12-11T11:32:58.184Z,97700.09
2022-12-11T11:35:26.567Z,97698.75
2022-12-11T11:38:13.279Z,97708.78
2022-12-11T11:40:42.499Z,97707.44
2022-12-11T11:43:29.281Z,97703.00
2022-12-11T11:45:59.703Z,97698.75
2022-12-11T11:48:44.477Z,97691.75
2022-12-11T11:51:29.418Z,97690.38
2022-12-11T11:53:58.563Z,97680.00
2022-12-11T11:56:31.553Z,97688.47
2022-12-11T11:58:59.299Z,97690.16
2022-12-11T12:01:25.850Z,97692.69
2022-12-11T12:03:52.729Z,97684.00
2022-12-11T12:06:19.190Z,97685.38
2022-12-11T12:09:04.476Z,97688.81
2022-12-11T12:11:39.934Z,97698.03
2022-12-11T12:14:43.546Z,97696.44
2022-12-11T12:17:02.200Z,97700.44
2022-12-11T12:19:37.271Z,97707.97
2022-12-11T12:22:22.325Z,97715.28
2022-12-11T12:25:01.078Z,97727.81
2022-12-11T12:30:23.297Z,97738.75
2022-12-11T12:32:49.966Z,97733.75
2022-12-11T12:35:24.394Z,97736.50
2022-12-11T12:38:10.339Z,97754.63
2022-12-11T12:40:43.782Z,97740.59
2022-12-11T12:43:31.502Z,97743.22
2022-12-11T12:46:20.306Z,97742.78
2022-12-11T12:48:46.876Z,97740.53
2022-12-11T12:51:16.360Z,97742.78
2022-12-11T12:53:49.252Z,97748.13
2022-12-11T12:56:16.135Z,97755.97
2022-12-11T12:58:44.834Z,97758.28
2022-12-11T13:01:22.116Z,97756.16
2022-12-11T13:04:26.254Z,97755.44
2022-12-11T13:06:56.426Z,97766.63
2022-12-11T13:09:24.394Z,97766.03
2022-12-11T13:11:54.600Z,97757.72
2022-12-11T13:14:27.566Z,97757.47
2022-12-11T13:17:05.203Z,97758.28
2022-12-11T13:19:37.637Z,97753.03
2022-12-11T13:22:13.254Z,97757.72
2022-12-11T13:24:47.160Z,97766.13
2022-12-11T13:27:24.343Z,97783.56
2022-12-11T13:29:50.877Z,97791.75
2022-12-11T13:32:17.286Z,97801.81
2022-12-11T13:34:55.480Z,97788.22
2022-12-11T13:37:24.866Z,97797.38
2022-12-11T13:39:53.724Z,97787.19
2022-12-11T13:42:34.397Z,97797.00
2022-12-11T13:45:01.858Z,97801.03
2022-12-11T13:47:29.166Z,97807.50
2022-12-11T13:49:57.021Z,97804.56
2022-12-11T13:52:30.784Z,97816.41
2022-12-11T13:54:59.300Z,97805.81
2022-12-11T13:57:26.212Z,97793.19
2022-12-11T13:59:53.861Z,97791.88
2022-12-11T14:02:32.378Z,97777.38
2022-12-11T14:05:03.745Z,97775.09
2022-12-11T14:07:34.737Z,97780.34
2022-12-11T14:10:06.390Z,97776.81
2022-12-11T14:12:32.914Z,97766.66
2022-12-11T14:15:02.097Z,97772.78
2022-12-11T14:17:30.625Z,97784.09
2022-12-11T14:19:58.111Z,97785.75
2022-12-11T14:22:25.965Z,97794.22
2022-12-11T14:24:54.329Z,97797.44
2022-12-11T14:27:20.939Z,97811.47
2022-12-11T14:29:48.238Z,97817.81
2022-12-11T14:32:20.518Z,97833.81
2022-12-11T14:34:47.965Z,97843.28
2022-12-11T14:37:15.860Z,97848.16
2022-12-11T14:39:47.929Z,97846.69
2022-12-11T14:42:20.037Z,97838.56
2022-12-11T14:44:56.285Z,97792.28
2022-12-11T14:47:27.845Z,97781.91
2022-12-11T14:49:58.857Z,97768.25
2022-12-11T14:52:32.398Z,97779.50
2022-12-11T14:55:05.669Z,97757.16
2022-12-11T14:57:33.653Z,97731.53
2022-12-11T15:00:00.305Z,97742.41
2022-12-11T15:02:32.237Z,97773.72
2022-12-11T15:05:03.473Z,97796.22
2022-12-11T15:07:30.017Z,97762.31
2022-12-11T15:09:56.462Z,97730.50
2022-12-11T15:12:23.065Z,97749.06
2022-12-11T15:14:58.077Z,97724.38
2022-12-11T15:17:28.107Z,97704.66
2022-12-11T15:20:07.178Z,97716.38
2022-12-11T15:22:34.322Z,97743.84
2022-12-11T15:25:01.089Z,97775.25
2022-12-11T15:27:38.107Z,97760.41
2022-12-11T15:30:31.062Z,97719.75
2022-12-11T15:33:09.507Z,97636.78
2022-12-11T15:35:36.618Z,97618.22
2022-12-11T15:38:03.072Z,97596.72
2022-12-11T15:40:29.795Z,97601.88
2022-12-11T15:42:57.001Z,97614.91
2022-12-11T15:45:28.527Z,97601.44
2022-12-11T15:47:55.555Z,97556.88
2022-12-11T15:50:23.414Z,97565.47
2022-12-11T15:52:52.478Z,97594.22
2022-12-11T15:55:19.994Z,97601.44
2022-12-11T15:57:53.954Z,97585.81
2022-12-11T16:00:21.015Z,97589.91
2022-12-11T16:02:47.890Z,97616.97
2022-12-11T16:05:14.946Z,97609.19
2022-12-11T16:07:42.707Z,97603.84
2022-12-11T16:10:13.925Z,97583.31
2022-12-11T16:12:41.744Z,97619.28
2022-12-11T16:15:09.261Z,97629.88
2022-12-11T16:17:35.923Z,97673.63
2022-12-11T16:20:03.749Z,97658.84
2022-12-11T16:22:30.198Z,97636.75
2022-12-11T16:24:56.798Z,97618.22
2022-12-11T16:27:23.617Z,97579.19
2022-12-11T16:29:50.440Z,97592.22
2022-12-11T16:32:18.334Z,97667.81
2022-12-11T16:34:44.971Z,97705.91
2022-12-11T16:37:11.466Z,97734.41
2022-12-11T16:39:39.794Z,97684.91
2022-12-11T16:42:06.392Z,97637.56
2022-12-11T16:44:32.906Z,97652.41
2022-12-11T16:46:59.472Z,97626.00
2022-12-11T16:49:26.133Z,97623.03
2022-12-11T16:51:53.825Z,97600.47
2022-12-11T16:54:20.269Z,97580.31
2022-12-11T16:56:47.986Z,97629.91
2022-12-11T16:59:14.422Z,97683.59
2022-12-11T17:01:41.045Z,97683.59
2022-12-11T17:04:07.583Z,97670.50
2022-12-11T17:06:34.032Z,97653.97
2022-12-11T17:09:00.826Z,97680.31
2022-12-11T17:11:27.280Z,97701.25
2022-12-11T17:13:58.137Z,97672.22
2022-12-11T17:16:28.962Z,97647.34
2022-12-11T17:18:56.144Z,97628.84
2022-12-11T17:21:24.062Z,97619.31
2022-12-11T17:23:51.205Z,97586.69
2022-12-11T17:26:18.311Z,97600.00
2022-12-11T17:28:46.558Z,97594.72
2022-12-11T17:31:14.783Z,97582.78
2022-12-11T17:33:41.643Z,97574.09
2022-12-11T17:36:08.469Z,97591.03
2022-12-11T17:38:35.068Z,97596.47
2022-12-11T17:41:05.068Z,97612.22
2022-12-11T17:43:32.691Z,97590.81
2022-12-11T17:45:59.196Z,97579.41
2022-12-11T17:48:26.471Z,97606.97
2022-12-11T17:50:53.020Z,97620.47
2022-12-11T17:53:20.714Z,97585.75
2022-12-11T17:55:47.956Z,97563.88
2022-12-11T17:58:23.230Z,97547.09
2022-12-11T18:00:51.334Z,97530.31
2022-12-11T18:03:18.719Z,97512.94
2022-12-11T18:05:49.094Z,97505.97
2022-12-11T18:08:16.661Z,97482.81
2022-12-11T18:10:44.645Z,97465.56
2022-12-11T18:13:11.492Z,97462.94
2022-12-11T18:15:39.001Z,97461.66
2022-12-11T18:18:06.342Z,97470.25
2022-12-11T18:20:33.230Z,97460.44
2022-12-11T18:23:00.018Z,97432.06
2022-12-11T18:25:27.990Z,97416.72
2022-12-11T18:27:59.116Z,97422.09
2022-12-11T18:30:25.606Z,97429.50
2022-12-11T18:32:52.234Z,97471.16
2022-12-11T18:35:18.777Z,97504.47
2022-12-11T18:37:45.609Z,97533.63
2022-12-11T18:40:13.491Z,97543.38
2022-12-11T18:42:40.163Z,97539.16
2022-12-11T18:45:07.065Z,97536.97
2022-12-11T18:47:33.576Z,97542.00
2022-12-11T18:50:05.647Z,97546.53
2022-12-11T18:52:34.841Z,97539.38
2022-12-11T18:55:02.598Z,97513.94
2022-12-11T18:57:29.030Z,97529.78
2022-12-11T18:59:55.533Z,97504.16
2022-12-11T19:02:22.173Z,97512.34
2022-12-11T19:04:48.745Z,97508.25
2022-12-11T19:07:15.217Z,97489.38
2022-12-11T19:09:47.543Z,97442.28
2022-12-11T19:12:14.497Z,97447.19
2022-12-11T19:14:41.553Z,97441.81
2022-12-11T19:17:08.138Z,97509.88
2022-12-11T19:19:35.854Z,97543.03
2022-12-11T19:22:02.360Z,97543.25
2022-12-11T19:24:30.338Z,97539.75
2022-12-11T19:26:57.099Z,97522.81
2022-12-11T19:29:25.366Z,97572.09
2022-12-11T19:31:52.102Z,97572.38
2022-12-11T19:34:18.773Z,97592.22
2022-12-11T19:36:45.779Z,97616.53
2022-12-11T19:39:13.379Z,97632.44
2022-12-11T19:41:41.875Z,97650.88
2022-12-11T19:44:08.662Z,97692.56
2022-12-11T19:46:36.492Z,97707.09
2022-12-11T19:49:03.178Z,97712.88
2022-12-11T19:51:31.312Z,97711.56
2022-12-11T19:53:58.785Z,97719.31
2022-12-11T19:56:25.447Z,97752.47
2022-12-11T19:58:51.969Z,97856.94
2022-12-11T20:01:19.600Z,97908.44
2022-12-11T20:03:46.566Z,97927.19
2022-12-11T20:06:13.769Z,97951.31
2022-12-11T20:08:45.282Z,97931.00
2022-12-11T20:11:17.896Z,97940.84
2022-12-11T20:13:48.252Z,97918.13
2022-12-11T20:16:16.267Z,97887.53
2022-12-11T20:18:43.246Z,97819.44
2022-12-11T20:21:12.378Z,97838.91
2022-12-11T20:23:40.718Z,97866.75
2022-12-11T20:26:10.355Z,97850.16
2022-12-11T20:28:37.000Z,97812.53
2022-12-11T20:31:07.835Z,97823.09
2022-12-11T20:33:34.528Z,97845.53
2022-12-11T20:36:01.054Z,97859.72
2022-12-11T20:38:34.119Z,97928.56
2022-12-11T20:41:00.939Z,97946.66
2022-12-11T20:43:27.372Z,97967.16
2022-12-11T20:45:53.916Z,97972.59
2022-12-11T20:48:20.418Z,97931.19
2022-12-11T20:50:47.064Z,97883.03
2022-12-11T20:53:15.462Z,97857.00
2022-12-11T20:55:44.129Z,97848.75
2022-12-11T20:58:10.635Z,97831.56
2022-12-11T21:00:37.873Z,97816.25
2022-12-11T21:03:04.666Z,97788.22
2022-12-11T21:05:31.397Z,97755.22
2022-12-11T21:07:57.964Z,97742.25
2022-12-11T21:10:24.463Z,97734.97
2022-12-11T21:12:50.916Z,97767.19
2022-12-11T21:15:19.253Z,97797.81
2022-12-11T21:17:49.134Z,97808.97
2022-12-11T21:20:17.547Z,97832.63
2022-12-11T21:22:44.233Z,97840.88
2022-12-11T21:25:11.130Z,97808.00
2022-12-11T21:27:38.067Z,97810.34
2022-12-11T21:30:05.264Z,97788.59
2022-12-11T21:32:31.853Z,97757.41
2022-12-11T21:35:01.307Z,97758.13
2022-12-11T21:37:27.814Z,97739.69
2022-12-11T21:39:57.429Z,97749.00
2022-12-11T21:42:24.393Z,97742.31
2022-12-11T21:47:37.898Z,97783.81
2022-12-11T21:50:04.558Z,97814.56
2022-12-11T21:52:31.088Z,97846.88
2022-12-11T21:54:57.531Z,97874.34
2022-12-11T21:57:26.501Z,97874.13
2022-12-11T21:59:53.369Z,97870.84
2022-12-11T22:02:22.248Z,97879.16
2022-12-11T22:04:48.718Z,97858.56
2022-12-11T22:07:18.318Z,97886.88
2022-12-11T22:09:44.769Z,97836.00
2022-12-11T22:12:22.190Z,97828.34
2022-12-11T22:14:49.443Z,97844.72
2022-12-11T22:17:18.251Z,97849.44
2022-12-11T22:19:45.655Z,97900.22
2022-12-11T22:22:14.989Z,97941.59
2022-12-11T22:24:41.439Z,97936.78
2022-12-11T22:27:07.994Z,97936.94
2022-12-11T22:29:35.557Z,97952.78
2022-12-11T22:32:02.130Z,97887.34
2022-12-11T22:34:28.599Z,97865.59
2022-12-11T22:36:55.179Z,97855.13
2022-12-11T22:39:21.782Z,97905.03
2022-12-11T22:41:48.494Z,97933.59
2022-12-11T22:44:19.678Z,97923.13
2022-12-11T22:46:49.929Z,97954.47
2022-12-11T22:49:19.532Z,97957.50
2022-12-11T22:51:46.058Z,97945.63
2022-12-11T22:54:15.036Z,97910.25
2022-12-11T22:56:41.622Z,97957.22
2022-12-11T22:59:09.901Z,97922.31
2022-12-11T23:01:36.399Z,97889.97
2022-12-11T23:04:02.932Z,97854.72
2022-12-11T23:06:29.410Z,97900.22
2022-12-11T23:08:59.785Z,97908.28
2022-12-11T23:11:31.581Z,97877.25
2022-12-11T23:13:58.922Z,97835.66
2022-12-11T23:16:27.260Z,97850.59
2022-12-11T23:18:54.721Z,97919.31
2022-12-11T23:21:23.793Z,97965.94
2022-12-11T23:23:50.793Z,98016.09
2022-12-11T23:26:18.824Z,97969.78
2022-12-11T23:28:46.314Z,97920.09
2022-12-11T23:31:12.858Z,97968.22
2022-12-11T23:33:39.341Z,97995.16
2022-12-11T23:36:05.918Z,98004.78
2022-12-11T23:38:32.433Z,98003.97
2022-12-11T23:41:01.415Z,98010.78
2022-12-11T23:43:27.905Z,98029.59
2022-12-11T23:45:54.452Z,98086.03
2022-12-11T23:48:21.286Z,98052.66
2022-12-11T23:50:48.197Z,98024.34
2022-12-11T23:53:14.913Z,97983.06
2022-12-11T23:55:42.157Z,97955.34
2022-12-11T23:58:08.989Z,97951.31
